createdAt,value
2019-02-18T00:02:13.840Z,53.90
2019-02-18T00:04:42.079Z,54.40
2019-02-18T00:07:14.606Z,54.90
2019-02-18T00:09:40.276Z,54.90
2019-02-18T00:12:08.504Z,55.40
2019-02-18T00:14:36.719Z,55.10
2019-02-18T00:17:05.253Z,54.80
2019-02-18T00:19:33.472Z,54.80
2019-02-18T00:22:01.701Z,54.80
2019-02-18T00:24:29.926Z,55.20
2019-02-18T00:26:58.147Z,55.50
2019-02-18T00:29:26.701Z,55.10
2019-02-18T00:31:55.040Z,55.40
2019-02-18T00:34:23.256Z,55.50
2019-02-18T00:36:51.484Z,55.40
2019-02-18T00:39:19.723Z,55.30
2019-02-18T00:41:49.379Z,55.20
2019-02-18T00:44:17.664Z,54.90
2019-02-18T00:46:45.891Z,55.20
2019-02-18T00:49:14.111Z,55.70
2019-02-18T00:51:42.347Z,55.10
2019-02-18T00:54:10.568Z,55.20
2019-02-18T00:56:38.790Z,55.70
2019-02-18T00:59:07.040Z,55.10
2019-02-18T01:01:35.275Z,55.20
2019-02-18T01:04:03.510Z,55.90
2019-02-18T01:06:31.724Z,55.70
2019-02-18T01:09:00.248Z,56.90
2019-02-18T01:11:28.744Z,56.30
2019-02-18T01:13:56.989Z,56.40
2019-02-18T01:16:25.191Z,56.70
2019-02-18T01:18:53.712Z,56.80
2019-02-18T01:21:21.948Z,56.30
2019-02-18T01:23:50.196Z,55.90
2019-02-18T01:26:18.412Z,56.20
2019-02-18T01:28:46.635Z,56.20
2019-02-18T01:31:15.158Z,56.00
2019-02-18T01:33:43.394Z,56.20
2019-02-18T01:36:11.599Z,56.20
2019-02-18T01:38:39.828Z,55.70
2019-02-18T01:41:08.047Z,56.30
2019-02-18T01:43:36.279Z,56.70
2019-02-18T01:46:04.512Z,56.70
2019-02-18T01:48:32.740Z,57.10
2019-02-18T01:51:00.960Z,56.90
2019-02-18T01:53:29.201Z,57.40
2019-02-18T01:55:57.599Z,56.70
2019-02-18T01:58:25.852Z,57.00
2019-02-18T02:00:54.069Z,57.60
2019-02-18T02:03:22.295Z,57.70
2019-02-18T02:05:50.533Z,57.40
2019-02-18T02:08:18.780Z,57.20
2019-02-18T02:10:47.000Z,57.00
2019-02-18T02:13:26.500Z,57.50
2019-02-18T02:15:54.787Z,57.40
2019-02-18T02:18:23.034Z,57.20
2019-02-18T02:20:51.257Z,57.40
2019-02-18T02:23:19.488Z,57.10
2019-02-18T02:25:47.960Z,57.10
2019-02-18T02:28:16.189Z,57.60
2019-02-18T02:30:44.406Z,57.80
2019-02-18T02:33:12.648Z,57.70
2019-02-18T02:35:40.873Z,58.00
2019-02-18T02:38:09.101Z,57.80
2019-02-18T02:40:37.336Z,57.80
2019-02-18T02:43:05.583Z,58.20
2019-02-18T02:45:33.807Z,58.10
2019-02-18T02:48:02.021Z,58.30
2019-02-18T02:50:30.259Z,57.90
2019-02-18T02:52:58.473Z,58.10
2019-02-18T02:55:26.706Z,58.10
2019-02-18T02:57:54.920Z,57.70
2019-02-18T03:00:23.169Z,57.80
2019-02-18T03:02:51.385Z,58.20
2019-02-18T03:05:19.612Z,58.30
2019-02-18T03:07:47.836Z,58.40
2019-02-18T03:10:16.081Z,58.20
2019-02-18T03:12:44.313Z,57.80
2019-02-18T03:15:15.594Z,57.90
2019-02-18T03:17:44.277Z,58.50
2019-02-18T03:20:12.528Z,59.50
2019-02-18T03:22:40.747Z,59.70
2019-02-18T03:25:26.336Z,59.00
2019-02-18T03:28:07.153Z,59.30
2019-02-18T03:30:56.781Z,59.40
2019-02-18T03:33:33.757Z,59.60
2019-02-18T03:36:02.228Z,58.60
2019-02-18T03:38:31.942Z,59.10
2019-02-18T03:41:03.206Z,59.30
2019-02-18T03:43:30.404Z,59.40
2019-02-18T03:45:58.620Z,59.30
2019-02-18T03:48:26.840Z,59.60
2019-02-18T03:50:55.091Z,59.20
2019-02-18T03:53:23.285Z,59.20
2019-02-18T03:55:51.521Z,59.40
2019-02-18T03:58:19.732Z,59.40
2019-02-18T04:00:47.974Z,59.40
2019-02-18T04:03:16.362Z,59.60
2019-02-18T04:05:44.667Z,60.00
2019-02-18T04:08:12.880Z,60.10
2019-02-18T04:10:41.107Z,59.40
2019-02-18T04:13:09.328Z,59.80
2019-02-18T04:15:37.553Z,59.30
2019-02-18T04:18:06.109Z,59.60
2019-02-18T04:20:34.331Z,59.50
2019-02-18T04:23:02.893Z,59.20
2019-02-18T04:25:31.120Z,59.80
2019-02-18T04:27:59.336Z,59.50
2019-02-18T04:30:27.556Z,59.30
2019-02-18T04:32:55.800Z,59.50
2019-02-18T04:35:24.055Z,59.70
2019-02-18T04:37:52.628Z,59.80
2019-02-18T04:40:20.858Z,60.10
2019-02-18T04:42:49.084Z,59.20
2019-02-18T04:45:17.301Z,59.50
2019-02-18T04:47:45.544Z,59.70
2019-02-18T04:50:13.788Z,60.00
2019-02-18T04:52:42.016Z,59.50
2019-02-18T04:55:11.069Z,59.70
2019-02-18T04:57:39.562Z,59.90
2019-02-18T05:00:09.313Z,60.40
2019-02-18T05:02:37.570Z,61.00
2019-02-18T05:05:09.773Z,59.70
2019-02-18T05:07:38.004Z,60.40
2019-02-18T05:10:10.624Z,60.50
2019-02-18T05:12:38.860Z,60.70
2019-02-18T05:15:08.510Z,60.40
2019-02-18T05:17:36.785Z,60.30
2019-02-18T05:20:07.188Z,59.80
2019-02-18T05:22:35.418Z,60.10
2019-02-18T05:25:05.256Z,60.10
2019-02-18T05:27:33.830Z,60.00
2019-02-18T05:30:02.198Z,60.30
2019-02-18T05:32:30.430Z,60.10
2019-02-18T05:34:58.640Z,60.10
2019-02-18T05:37:26.882Z,60.20
2019-02-18T05:39:55.562Z,60.70
2019-02-18T05:42:23.917Z,60.90
2019-02-18T05:44:52.116Z,60.80
2019-02-18T05:47:20.352Z,60.30
2019-02-18T05:49:48.563Z,60.70
2019-02-18T05:52:16.805Z,60.20
2019-02-18T05:54:45.092Z,60.40
2019-02-18T05:57:13.664Z,60.10
2019-02-18T05:59:41.874Z,60.30
2019-02-18T06:02:10.101Z,60.70
2019-02-18T06:04:38.660Z,61.20
2019-02-18T06:07:06.927Z,61.70
2019-02-18T06:09:35.141Z,61.00
2019-02-18T06:12:03.369Z,61.00
2019-02-18T06:14:31.593Z,60.70
2019-02-18T06:16:59.820Z,60.90
2019-02-18T06:19:28.032Z,61.70
2019-02-18T06:21:56.687Z,61.90
2019-02-18T06:24:25.259Z,61.80
2019-02-18T06:26:53.756Z,61.50
2019-02-18T06:29:21.985Z,61.50
2019-02-18T06:31:51.953Z,61.30
2019-02-18T06:34:20.193Z,61.20
2019-02-18T06:36:50.071Z,62.10
2019-02-18T06:39:18.300Z,62.00
2019-02-18T06:41:46.534Z,62.20
2019-02-18T06:44:15.036Z,61.90
2019-02-18T06:46:45.165Z,61.40
2019-02-18T06:49:15.168Z,61.60
2019-02-18T06:51:43.762Z,61.80
2019-02-18T06:54:11.992Z,61.90
2019-02-18T06:56:48.261Z,62.50
2019-02-18T06:59:18.395Z,63.10
2019-02-18T07:01:50.966Z,63.10
2019-02-18T07:04:26.608Z,63.30
2019-02-18T07:07:11.794Z,62.80
2019-02-18T07:09:59.599Z,62.80
2019-02-18T07:12:32.180Z,62.60
2019-02-18T07:15:00.404Z,63.10
2019-02-18T07:17:28.969Z,62.90
2019-02-18T07:19:57.198Z,62.40
2019-02-18T07:22:25.419Z,62.40
2019-02-18T07:24:53.665Z,62.70
2019-02-18T07:27:21.934Z,62.60
2019-02-18T07:29:50.149Z,62.40
2019-02-18T07:32:18.420Z,61.90
2019-02-18T07:34:46.711Z,61.70
2019-02-18T07:37:14.942Z,61.70
2019-02-18T07:39:43.180Z,61.10
2019-02-18T07:42:11.401Z,60.90
2019-02-18T07:44:39.979Z,99.90
2019-02-18T07:47:08.221Z,84.00
2019-02-18T07:49:36.448Z,72.80
2019-02-18T07:52:04.680Z,91.60
2019-02-18T07:54:33.194Z,82.00
2019-02-18T07:57:01.412Z,73.90
2019-02-18T07:59:29.976Z,68.50
2019-02-18T08:01:59.306Z,63.90
2019-02-18T08:04:27.542Z,60.10
2019-02-18T08:06:55.764Z,44.00
2019-02-18T08:09:24.009Z,44.90
2019-02-18T08:11:52.432Z,46.70
2019-02-18T08:14:20.938Z,48.70
2019-02-18T08:16:49.263Z,50.60
2019-02-18T08:19:17.729Z,51.50
2019-02-18T08:21:46.011Z,52.20
2019-02-18T08:24:14.225Z,52.50
2019-02-18T08:26:44.066Z,52.50
2019-02-18T08:29:12.822Z,53.00
2019-02-18T08:31:41.121Z,53.10
2019-02-18T08:34:09.468Z,53.50
2019-02-18T08:36:38.015Z,53.00
2019-02-18T08:39:06.404Z,52.60
2019-02-18T08:41:34.641Z,52.80
2019-02-18T08:44:03.173Z,52.40
2019-02-18T08:46:31.397Z,51.90
2019-02-18T08:48:59.628Z,52.30
2019-02-18T08:51:27.869Z,51.50
2019-02-18T08:53:56.433Z,51.20
2019-02-18T08:56:24.677Z,50.70
2019-02-18T08:58:52.911Z,50.60
2019-02-18T09:01:21.133Z,50.40
2019-02-18T09:03:49.360Z,50.40
2019-02-18T09:06:17.885Z,49.90
2019-02-18T09:08:46.112Z,49.20
2019-02-18T09:11:14.672Z,49.20
2019-02-18T09:13:42.897Z,47.50
2019-02-18T09:16:11.131Z,47.30
2019-02-18T09:18:39.514Z,46.70
2019-02-18T09:21:07.821Z,46.00
2019-02-18T09:23:40.368Z,46.40
2019-02-18T09:26:08.699Z,45.50
2019-02-18T09:28:36.990Z,44.00
2019-02-18T09:31:05.219Z,42.00
2019-02-18T09:33:33.603Z,43.60
2019-02-18T09:36:01.977Z,44.40
2019-02-18T09:38:30.356Z,44.10
2019-02-18T09:40:59.151Z,43.20
2019-02-18T09:43:27.476Z,43.50
2019-02-18T09:45:56.709Z,42.70
2019-02-18T09:48:24.958Z,42.80
2019-02-18T09:50:53.173Z,43.00
2019-02-18T09:53:21.408Z,42.50
2019-02-18T09:55:49.906Z,42.60
2019-02-18T09:58:18.161Z,42.80
2019-02-18T10:00:46.385Z,42.10
2019-02-18T10:03:14.626Z,42.10
2019-02-18T10:05:42.868Z,41.70
2019-02-18T10:08:11.114Z,41.00
2019-02-18T10:10:39.358Z,40.60
2019-02-18T10:13:07.576Z,39.90
2019-02-18T10:15:35.821Z,39.80
2019-02-18T10:18:04.117Z,39.30
2019-02-18T10:20:32.355Z,39.30
2019-02-18T10:23:00.574Z,40.50
2019-02-18T10:25:28.825Z,39.90
2019-02-18T10:27:57.028Z,39.50
2019-02-18T10:30:25.376Z,39.20
2019-02-18T10:32:53.588Z,40.80
2019-02-18T10:35:21.817Z,40.70
2019-02-18T10:37:54.958Z,39.70
2019-02-18T10:40:20.026Z,39.10
2019-02-18T10:42:48.254Z,40.20
2019-02-18T10:45:16.498Z,40.10
2019-02-18T10:47:44.715Z,39.40
2019-02-18T10:50:12.951Z,40.80
2019-02-18T10:52:41.204Z,40.90
2019-02-18T10:55:11.114Z,39.00
2019-02-18T10:57:39.598Z,39.60
2019-02-18T11:00:29.180Z,40.00
2019-02-18T11:02:57.482Z,39.70
2019-02-18T11:05:26.014Z,39.40
2019-02-18T11:07:54.903Z,39.10
2019-02-18T11:10:23.470Z,38.10
2019-02-18T11:12:51.688Z,38.10
2019-02-18T11:15:19.920Z,37.80
2019-02-18T11:17:48.137Z,37.10
2019-02-18T11:20:16.373Z,37.60
2019-02-18T11:22:44.597Z,36.70
2019-02-18T11:25:17.256Z,37.20
2019-02-18T11:27:45.542Z,35.20
2019-02-18T11:30:19.464Z,35.60
2019-02-18T11:32:47.729Z,35.20
2019-02-18T11:35:16.250Z,35.20
2019-02-18T11:37:44.985Z,34.80
2019-02-18T11:40:14.818Z,34.80
2019-02-18T11:42:43.045Z,33.80
2019-02-18T11:45:14.249Z,33.00
2019-02-18T11:47:42.957Z,34.00
2019-02-18T11:50:13.880Z,34.00
2019-02-18T11:52:42.131Z,32.50
2019-02-18T11:55:14.279Z,32.30
2019-02-18T11:57:42.886Z,32.50
2019-02-18T12:00:13.743Z,31.50
2019-02-18T12:02:42.033Z,31.00
2019-02-18T12:05:10.912Z,32.40
2019-02-18T12:07:39.134Z,31.40
2019-02-18T12:10:10.663Z,31.00
2019-02-18T12:12:39.260Z,30.40
2019-02-18T12:15:13.562Z,31.50
2019-02-18T12:17:41.792Z,30.50
2019-02-18T12:20:12.057Z,31.40
2019-02-18T12:22:40.612Z,30.90
2019-02-18T12:25:09.563Z,31.20
2019-02-18T12:27:38.172Z,30.30
2019-02-18T12:30:14.517Z,29.30
2019-02-18T12:32:42.853Z,28.30
2019-02-18T12:35:11.103Z,28.40
2019-02-18T12:37:39.741Z,28.40
2019-02-18T12:40:14.410Z,28.20
2019-02-18T12:42:42.836Z,27.00
2019-02-18T12:45:12.329Z,27.60
2019-02-18T12:47:40.556Z,27.70
2019-02-18T12:50:12.366Z,26.40
2019-02-18T12:52:40.650Z,26.10
2019-02-18T12:55:10.479Z,26.50
2019-02-18T12:57:39.411Z,26.50
2019-02-18T13:00:15.379Z,26.90
2019-02-18T13:02:45.056Z,26.70
2019-02-18T13:05:13.642Z,26.30
2019-02-18T13:07:41.953Z,26.60
2019-02-18T13:10:11.358Z,27.00
2019-02-18T13:12:39.972Z,26.50
2019-02-18T13:15:18.777Z,26.40
2019-02-18T13:17:47.076Z,25.60
2019-02-18T13:20:15.382Z,25.20
2019-02-18T13:22:43.736Z,25.40
2019-02-18T13:25:12.005Z,25.20
2019-02-18T13:27:42.221Z,24.70
2019-02-18T13:30:19.391Z,25.10
2019-02-18T13:32:47.708Z,23.90
2019-02-18T13:35:15.933Z,24.20
2019-02-18T13:37:44.168Z,23.60
2019-02-18T13:40:14.721Z,22.90
2019-02-18T13:42:43.227Z,23.00
2019-02-18T13:45:11.448Z,23.50
2019-02-18T13:47:39.762Z,23.30
2019-02-18T13:50:10.420Z,23.00
2019-02-18T13:52:38.668Z,23.50
2019-02-18T13:55:09.560Z,23.80
2019-02-18T13:57:38.486Z,23.10
2019-02-18T14:00:22.103Z,21.90
2019-02-18T14:02:50.607Z,22.60
2019-02-18T14:05:20.546Z,22.70
2019-02-18T14:07:48.773Z,22.20
2019-02-18T14:10:17.500Z,22.60
2019-02-18T14:12:45.732Z,21.90
2019-02-18T14:15:14.476Z,22.50
2019-02-18T14:17:42.742Z,22.80
2019-02-18T14:20:15.082Z,23.30
2019-02-18T14:22:43.595Z,23.60
2019-02-18T14:25:12.200Z,23.90
2019-02-18T14:27:40.437Z,24.60
2019-02-18T14:30:16.882Z,25.20
2019-02-18T14:32:45.279Z,25.90
2019-02-18T14:35:14.915Z,26.70
2019-02-18T14:37:43.152Z,25.40
2019-02-18T14:40:13.294Z,26.40
2019-02-18T14:42:41.603Z,24.00
2019-02-18T14:45:09.994Z,25.90
2019-02-18T14:47:38.318Z,26.60
2019-02-18T14:50:08.645Z,26.80
2019-02-18T14:52:36.957Z,26.80
2019-02-18T14:55:08.318Z,26.10
2019-02-18T14:57:41.917Z,26.50
2019-02-18T15:00:19.881Z,26.90
2019-02-18T15:02:50.637Z,27.20
2019-02-18T15:05:18.965Z,28.10
2019-02-18T15:07:47.213Z,28.10
2019-02-18T15:10:16.065Z,26.80
2019-02-18T15:12:44.949Z,26.40
2019-02-18T15:15:13.410Z,27.20
2019-02-18T15:17:44.784Z,27.10
2019-02-18T15:20:13.013Z,27.70
2019-02-18T15:22:46.482Z,27.30
2019-02-18T15:25:14.743Z,27.20
2019-02-18T15:27:42.998Z,28.10
2019-02-18T15:30:13.948Z,27.80
2019-02-18T15:32:42.191Z,28.60
2019-02-18T15:35:10.778Z,28.90
2019-02-18T15:37:39.008Z,29.40
2019-02-18T15:40:10.406Z,30.20
2019-02-18T15:42:42.122Z,29.70
2019-02-18T15:45:09.145Z,28.90
2019-02-18T15:47:37.393Z,30.00
2019-02-18T15:50:08.956Z,29.40
2019-02-18T15:52:37.201Z,30.00
2019-02-18T15:55:05.788Z,29.50
2019-02-18T15:57:34.032Z,29.70
2019-02-18T16:00:02.252Z,30.20
2019-02-18T16:02:30.549Z,30.40
2019-02-18T16:04:58.767Z,30.90
2019-02-18T16:07:27.180Z,31.60
2019-02-18T16:09:55.409Z,32.70
2019-02-18T16:12:23.650Z,32.30
2019-02-18T16:14:52.211Z,34.00
2019-02-18T16:17:20.461Z,33.70
2019-02-18T16:19:49.554Z,34.50
2019-02-18T16:22:18.400Z,34.40
2019-02-18T16:24:47.220Z,35.50
2019-02-18T16:27:15.464Z,34.30
2019-02-18T16:29:43.702Z,35.70
2019-02-18T16:32:11.937Z,37.20
2019-02-18T16:34:40.163Z,37.20
2019-02-18T16:37:08.885Z,37.60
2019-02-18T16:39:37.108Z,37.40
2019-02-18T16:42:05.841Z,38.00
2019-02-18T16:44:34.350Z,37.90
2019-02-18T16:47:02.580Z,38.50
2019-02-18T16:49:30.812Z,39.00
2019-02-18T16:51:59.059Z,39.10
2019-02-18T16:54:27.761Z,39.70
2019-02-18T16:56:56.064Z,39.80
2019-02-18T16:59:24.288Z,40.10
2019-02-18T17:01:52.540Z,39.90
2019-02-18T17:04:20.783Z,40.10
2019-02-18T17:06:49.037Z,40.20
2019-02-18T17:09:17.633Z,40.10
2019-02-18T17:11:45.932Z,40.40
2019-02-18T17:14:14.171Z,40.40
2019-02-18T17:16:42.404Z,42.70
2019-02-18T17:19:10.637Z,43.30
2019-02-18T17:21:39.194Z,39.90
2019-02-18T17:24:07.694Z,40.20
2019-02-18T17:26:36.285Z,41.20
2019-02-18T17:29:04.534Z,41.40
2019-02-18T17:31:33.072Z,41.70
2019-02-18T17:34:01.313Z,41.20
2019-02-18T17:36:29.528Z,42.10
2019-02-18T17:38:57.811Z,42.10
2019-02-18T17:41:26.096Z,40.90
2019-02-18T17:43:54.524Z,41.70
2019-02-18T17:46:22.744Z,41.60
2019-02-18T17:48:51.012Z,41.60
2019-02-18T17:51:19.231Z,42.00
2019-02-18T17:53:47.802Z,41.70
2019-02-18T17:56:16.024Z,41.30
2019-02-18T17:58:44.286Z,41.10
2019-02-18T18:01:12.500Z,42.10
2019-02-18T18:03:40.764Z,41.60
2019-02-18T18:06:08.980Z,42.30
2019-02-18T18:08:37.245Z,42.30
2019-02-18T18:11:05.469Z,42.60
2019-02-18T18:13:33.800Z,42.90
2019-02-18T18:16:02.428Z,42.90
2019-02-18T18:18:30.743Z,43.40
2019-02-18T18:20:59.076Z,43.10
2019-02-18T18:23:27.327Z,42.50
2019-02-18T18:25:55.615Z,42.50
2019-02-18T18:28:23.864Z,43.10
2019-02-18T18:30:52.083Z,43.40
2019-02-18T18:33:20.342Z,43.00
2019-02-18T18:35:48.897Z,43.50
2019-02-18T18:38:17.909Z,43.90
2019-02-18T18:40:46.134Z,44.80
2019-02-18T18:43:14.385Z,44.20
2019-02-18T18:45:42.611Z,44.00
2019-02-18T18:48:11.133Z,44.30
2019-02-18T18:50:39.437Z,44.40
2019-02-18T18:53:07.664Z,44.60
2019-02-18T18:55:36.021Z,44.70
2019-02-18T18:58:04.316Z,44.40
2019-02-18T19:00:32.805Z,44.70
2019-02-18T19:03:01.429Z,44.80
2019-02-18T19:05:29.651Z,45.00
2019-02-18T19:07:57.876Z,45.30
2019-02-18T19:10:26.126Z,44.50
2019-02-18T19:12:54.362Z,45.50
2019-02-18T19:15:24.395Z,44.90
2019-02-18T19:17:53.085Z,45.30
2019-02-18T19:20:21.393Z,44.70
2019-02-18T19:22:49.626Z,45.30
2019-02-18T19:25:17.871Z,45.40
2019-02-18T19:27:46.199Z,45.50
2019-02-18T19:30:35.571Z,45.80
2019-02-18T19:33:03.866Z,46.00
2019-02-18T19:35:32.297Z,46.30
2019-02-18T19:38:00.587Z,45.60
2019-02-18T19:40:28.898Z,45.90
2019-02-18T19:42:57.116Z,46.50
2019-02-18T19:45:25.847Z,46.30
2019-02-18T19:47:54.134Z,46.40
2019-02-18T19:50:22.829Z,46.50
2019-02-18T19:52:52.810Z,45.70
2019-02-18T19:55:21.116Z,46.00
2019-02-18T19:57:50.066Z,46.70
2019-02-18T20:00:19.964Z,46.10
2019-02-18T20:02:49.331Z,46.50
2019-02-18T20:05:17.928Z,46.80
2019-02-18T20:07:46.149Z,46.50
2019-02-18T20:10:14.423Z,47.30
2019-02-18T20:12:43.003Z,47.60
2019-02-18T20:15:15.515Z,46.40
2019-02-18T20:17:43.763Z,47.40
2019-02-18T20:20:16.400Z,46.80
2019-02-18T20:22:44.619Z,47.10
2019-02-18T20:25:12.869Z,48.10
2019-02-18T20:27:41.090Z,47.20
2019-02-18T20:30:14.194Z,48.10
2019-02-18T20:32:42.716Z,47.70
2019-02-18T20:35:11.228Z,47.70
2019-02-18T20:37:39.452Z,48.90
2019-02-18T20:40:10.077Z,49.10
2019-02-18T20:42:38.112Z,49.40
2019-02-18T20:45:10.795Z,49.00
2019-02-18T20:47:39.039Z,48.90
2019-02-18T20:50:09.824Z,49.50
2019-02-18T20:52:39.865Z,49.00
2019-02-18T20:55:11.303Z,49.40
2019-02-18T20:57:39.537Z,49.10
2019-02-18T21:00:17.869Z,48.80
2019-02-18T21:02:46.686Z,49.20
2019-02-18T21:05:15.588Z,49.50
2019-02-18T21:07:43.954Z,49.00
2019-02-18T21:10:17.993Z,49.00
2019-02-18T21:12:46.216Z,48.90
2019-02-18T21:15:14.485Z,49.30
2019-02-18T21:17:43.105Z,49.30
2019-02-18T21:20:14.664Z,49.00
2019-02-18T21:22:45.518Z,49.60
2019-02-18T21:25:13.852Z,49.50
2019-02-18T21:27:42.576Z,49.60
2019-02-18T21:30:12.985Z,49.90
2019-02-18T21:32:41.313Z,50.30
2019-02-18T21:35:09.554Z,51.30
2019-02-18T21:37:37.858Z,51.10
2019-02-18T21:40:08.763Z,50.90
2019-02-18T21:42:37.055Z,51.80
2019-02-18T21:45:08.247Z,51.50
2019-02-18T21:47:36.448Z,50.70
2019-02-18T21:50:06.428Z,51.80
2019-02-18T21:52:34.717Z,52.30
2019-02-18T21:55:03.280Z,52.50
2019-02-18T21:57:31.593Z,53.20
2019-02-18T21:59:59.817Z,53.30
2019-02-18T22:02:28.048Z,52.90
2019-02-18T22:04:56.346Z,52.50
2019-02-18T22:07:24.669Z,52.70
2019-02-18T22:09:53.277Z,52.20
2019-02-18T22:12:21.512Z,52.00
2019-02-18T22:14:49.768Z,51.80
2019-02-18T22:17:18.054Z,52.00
2019-02-18T22:19:46.320Z,51.80
2019-02-18T22:22:14.560Z,52.20
2019-02-18T22:24:42.809Z,51.80
2019-02-18T22:27:11.500Z,51.50
2019-02-18T22:29:39.727Z,51.60
2019-02-18T22:32:07.976Z,51.20
2019-02-18T22:34:36.201Z,51.40
2019-02-18T22:37:04.719Z,51.60
2019-02-18T22:39:32.939Z,51.90
2019-02-18T22:42:01.205Z,52.60
2019-02-18T22:44:29.816Z,51.80
2019-02-18T22:46:58.044Z,52.30
2019-02-18T22:49:26.299Z,53.20
2019-02-18T22:51:54.542Z,53.10
2019-02-18T22:54:22.768Z,53.90
2019-02-18T22:56:50.992Z,52.80
2019-02-18T22:59:19.216Z,52.50
2019-02-18T23:01:47.825Z,53.00
2019-02-18T23:04:16.045Z,53.60
2019-02-18T23:06:44.597Z,53.40
2019-02-18T23:09:14.579Z,53.70
2019-02-18T23:11:42.812Z,53.60
2019-02-18T23:14:11.029Z,54.20
2019-02-18T23:16:39.272Z,54.90
2019-02-18T23:19:07.777Z,54.90
2019-02-18T23:21:36.028Z,54.70
2019-02-18T23:24:04.257Z,54.30
2019-02-18T23:26:32.728Z,54.10
2019-02-18T23:29:00.943Z,54.10
2019-02-18T23:31:29.172Z,54.10
2019-02-18T23:33:57.702Z,54.30
2019-02-18T23:36:25.938Z,54.60
2019-02-18T23:38:54.228Z,55.30
2019-02-18T23:41:22.459Z,55.00
2019-02-18T23:43:50.676Z,54.60
2019-02-18T23:46:19.253Z,55.00
2019-02-18T23:48:47.468Z,55.70
2019-02-18T23:51:16.029Z,55.90
2019-02-18T23:53:44.247Z,55.30
2019-02-18T23:56:12.912Z,55.80
2019-02-18T23:58:41.132Z,55.70
